Time;durP1;ratioP1;P1;durP2;ratioP2;P2;SDS_P1;SDS_P2;PMS_P1;PMS_P2;Temp;Humidity;BMP_temperature;BMP_pressure;BME280_temperature;BME280_humidity;BME280_pressure;Samples;Min_cycle;Max_cycle;Signal;HPM_P1;HPM_P2
2021/08/12 00:02:00;;;;;;;9.37;5.30;;;;;;;21.01;82.28;96748.03;5072326;28;20502;-66
2021/08/12 00:04:25;;;;;;;5.80;5.30;;;;;;;21.07;81.70;96742.34;5063862;28;20481;-67
2021/08/12 00:06:51;;;;;;;6.63;6.10;;;;;;;20.93;82.19;96749.41;5053765;28;20175;-65
2021/08/12 00:09:16;;;;;;;8.00;6.37;;;;;;;20.87;82.01;96747.84;5053469;28;20174;-67
2021/08/12 00:11:41;;;;;;;6.23;5.30;;;;;;;20.85;82.27;96742.03;5052321;28;20171;-65
2021/08/12 00:14:07;;;;;;;7.50;6.10;;;;;;;20.86;82.12;96745.47;5052994;28;20280;-67
2021/08/12 00:16:33;;;;;;;7.70;6.23;;;;;;;20.71;82.74;96737.59;5053296;28;20202;-67
2021/08/12 00:18:59;;;;;;;6.37;5.87;;;;;;;20.45;83.27;96745.78;5060763;28;20266;-67
2021/08/12 00:21:25;;;;;;;6.37;5.77;;;;;;;20.38;83.99;96750.66;5070218;28;20176;-67
2021/08/12 00:23:52;;;;;;;7.07;6.00;;;;;;;20.35;84.48;96751.22;5052865;28;20461;-65
2021/08/12 00:26:19;;;;;;;6.30;5.60;;;;;;;20.30;85.18;96745.13;5053464;28;20473;-65
2021/08/12 00:28:45;;;;;;;6.50;5.90;;;;;;;20.37;84.64;96733.03;5053374;28;20476;-65
2021/08/12 00:31:11;;;;;;;8.53;6.70;;;;;;;20.41;84.42;96733.28;5053254;28;20172;-67
2021/08/12 00:33:36;;;;;;;6.57;5.97;;;;;;;20.37;84.71;96738.38;5059499;28;20420;-65
2021/08/12 00:36:02;;;;;;;6.53;5.93;;;;;;;20.27;85.49;96737.66;5071968;28;20265;-67
2021/08/12 00:38:28;;;;;;;6.93;6.10;;;;;;;20.39;84.59;96733.56;5060029;28;20179;-67
2021/08/12 00:40:54;;;;;;;7.23;6.17;;;;;;;20.56;83.66;96729.72;5053359;28;20181;-67
2021/08/12 00:43:19;;;;;;;7.83;6.27;;;;;;;20.53;83.64;96725.72;5052988;28;20168;-67
2021/08/12 00:45:45;;;;;;;5.97;5.50;;;;;;;20.60;83.38;96722.72;5053028;28;20206;-65
2021/08/12 00:48:10;;;;;;;6.50;5.90;;;;;;;20.62;83.06;96725.94;5053452;28;20182;-67
2021/08/12 00:50:40;;;;;;;6.67;6.07;;;;;;;20.60;83.33;96725.41;5053154;28;20182;-65
2021/08/12 00:53:05;;;;;;;6.63;5.93;;;;;;;20.64;83.09;96727.22;5064255;28;20175;-67
2021/08/12 00:55:30;;;;;;;6.67;5.77;;;;;;;20.68;82.71;96722.13;5073028;28;20532;-67
2021/08/12 00:57:56;;;;;;;6.77;6.17;;;;;;;20.63;82.46;96727.50;5073153;28;20186;-67
2021/08/12 01:00:21;;;;;;;6.50;6.00;;;;;;;20.38;83.47;96734.63;5073167;28;20661;-65
2021/08/12 01:02:48;;;;;;;6.27;5.77;;;;;;;20.15;84.56;96734.50;5072677;28;20175;-66
2021/08/12 01:05:14;;;;;;;8.10;6.07;;;;;;;20.07;85.35;96741.25;5072904;28;20198;-65
2021/08/12 01:08:06;;;;;;;6.00;5.50;;;;;;;20.21;84.68;96730.75;5062600;28;20516;-65
2021/08/12 01:10:54;;;;;;;6.93;5.53;;;;;;;20.30;84.49;96739.78;5053154;28;20447;-65
2021/08/12 01:14:05;;;;;;;6.10;5.50;;;;;;;20.33;84.28;96740.00;5052597;28;20488;-65
2021/08/12 01:16:36;;;;;;;6.60;5.97;;;;;;;20.29;84.30;96749.66;5050933;28;20426;-65
2021/08/12 01:19:12;;;;;;;6.20;5.60;;;;;;;20.27;84.38;96749.13;5050944;28;20896;-65
2021/08/12 01:21:59;;;;;;;6.50;5.90;;;;;;;20.28;84.49;96748.06;5055092;28;21021;-67
2021/08/12 01:24:31;;;;;;;6.47;5.87;;;;;;;20.35;83.83;96753.88;5070072;28;20452;-67
2021/08/12 01:27:00;;;;;;;5.63;5.17;;;;;;;20.35;83.87;96745.88;5070889;28;20488;-65
2021/08/12 01:29:40;;;;;;;6.97;6.37;;;;;;;20.29;84.22;96749.66;5074279;28;20401;-65
2021/08/12 01:32:20;;;;;;;7.47;5.87;;;;;;;20.34;83.61;96746.97;5074423;28;20403;-65
2021/08/12 01:34:55;;;;;;;6.03;5.43;;;;;;;20.33;84.02;96748.03;5073945;28;20456;-65
2021/08/12 01:37:23;;;;;;;6.63;6.03;;;;;;;20.37;83.56;96749.06;5062444;28;20801;-67
2021/08/12 01:39:51;;;;;;;6.60;5.90;;;;;;;20.39;83.40;96746.13;5054321;28;20817;-66
2021/08/12 01:42:16;;;;;;;6.87;6.20;;;;;;;20.42;83.16;96751.69;5055253;28;20430;-67
2021/08/12 01:44:44;;;;;;;5.50;5.00;;;;;;;20.38;83.06;96747.97;5053702;28;20839;-67
2021/08/12 01:47:10;;;;;;;6.40;5.80;;;;;;;20.31;83.40;96739.50;5055180;28;20171;-66
2021/08/12 01:49:38;;;;;;;5.73;5.13;;;;;;;20.21;84.16;96739.56;5056207;28;20441;-67
2021/08/12 01:52:05;;;;;;;7.07;6.00;;;;;;;20.32;83.47;96738.44;5056209;28;20816;-67
2021/08/12 01:54:31;;;;;;;6.60;6.10;;;;;;;20.30;83.70;96734.44;5055508;28;20947;-67
2021/08/12 01:56:57;;;;;;;6.20;5.70;;;;;;;20.32;83.40;96738.44;5065459;28;20835;-65
2021/08/12 01:59:25;;;;;;;6.23;5.63;;;;;;;20.16;84.33;96746.78;5076045;28;20492;-65
2021/08/12 02:01:56;;;;;;;5.43;5.00;;;;;;;20.16;84.07;96739.56;5075997;28;20175;-67
2021/08/12 02:04:22;;;;;;;5.90;5.40;;;;;;;20.16;84.19;96736.91;5075473;28;20424;-65
2021/08/12 02:06:50;;;;;;;6.33;5.40;;;;;;;20.21;83.63;96744.09;5076051;28;20839;-66
2021/08/12 02:09:16;;;;;;;6.10;5.50;;;;;;;20.20;83.65;96732.63;5075857;28;20409;-65
2021/08/12 02:11:43;;;;;;;6.30;5.70;;;;;;;20.18;83.83;96737.44;5065941;28;20936;-66
2021/08/12 02:14:09;;;;;;;6.30;5.73;;;;;;;20.13;84.04;96721.44;5059026;28;20618;-65
2021/08/12 02:16:34;;;;;;;6.83;6.23;;;;;;;20.16;83.85;96725.44;5075728;28;20440;-65
2021/08/12 02:19:00;;;;;;;5.87;5.47;;;;;;;20.19;83.66;96728.38;5075707;28;20201;-67
2021/08/12 02:21:36;;;;;;;6.90;6.27;;;;;;;20.25;83.10;96721.13;5072055;28;20187;-66
2021/08/12 02:24:10;;;;;;;6.50;6.00;;;;;;;20.22;83.35;96721.66;5054879;28;20661;-66
2021/08/12 02:26:40;;;;;;;6.73;6.13;;;;;;;20.13;83.69;96725.97;5055418;28;20798;-65
2021/08/12 02:29:08;;;;;;;7.23;6.27;;;;;;;20.17;83.70;96719.03;5059744;28;20465;-66
2021/08/12 02:31:34;;;;;;;6.80;6.30;;;;;;;20.19;83.46;96724.91;5075301;28;20412;-64
2021/08/12 02:34:01;;;;;;;8.00;6.70;;;;;;;20.15;83.82;96719.28;5054891;28;20450;-65
2021/08/12 02:36:28;;;;;;;7.87;7.07;;;;;;;20.15;83.51;96719.28;5055429;28;20413;-66
2021/08/12 02:38:55;;;;;;;8.03;6.90;;;;;;;20.08;83.85;96718.81;5055053;28;20778;-65
2021/08/12 02:41:23;;;;;;;8.23;7.53;;;;;;;20.12;83.91;96716.38;5055228;28;20410;-67
2021/08/12 02:43:49;;;;;;;8.87;7.43;;;;;;;20.14;84.10;96717.69;5054691;28;20418;-65
2021/08/12 02:46:17;;;;;;;7.53;6.83;;;;;;;20.15;83.89;96726.47;5055182;28;20796;-65
2021/08/12 02:48:44;;;;;;;7.40;6.67;;;;;;;20.14;83.99;96711.56;5063004;28;20788;-67
2021/08/12 02:51:11;;;;;;;7.57;6.77;;;;;;;20.11;83.96;96722.81;5054952;28;20409;-65
2021/08/12 02:53:37;;;;;;;7.77;7.07;;;;;;;20.07;84.47;96711.88;5054771;28;20438;-67
2021/08/12 02:56:06;;;;;;;7.37;6.77;;;;;;;20.04;84.32;96716.94;5054804;28;20479;-64
2021/08/12 02:58:34;;;;;;;7.60;7.00;;;;;;;20.06;84.50;96715.59;5055021;28;20163;-66
2021/08/12 03:01:00;;;;;;;8.53;7.73;;;;;;;20.00;84.69;96711.38;5054883;28;20410;-67
2021/08/12 03:03:27;;;;;;;8.17;7.47;;;;;;;20.02;84.39;96719.13;5064489;28;20925;-65
2021/08/12 03:05:53;;;;;;;7.90;7.20;;;;;;;20.03;84.60;96710.03;5074524;28;20202;-65
2021/08/12 03:08:19;;;;;;;9.17;7.40;;;;;;;20.02;84.55;96708.44;5074673;28;20437;-67
2021/08/12 03:10:45;;;;;;;9.40;7.30;;;;;;;20.06;84.49;96706.78;5074687;28;20405;-65
2021/08/12 03:13:12;;;;;;;7.80;7.20;;;;;;;20.07;84.05;96698.53;5074317;28;20475;-67
2021/08/12 03:15:41;;;;;;;7.30;6.57;;;;;;;20.02;84.27;96693.22;5074309;28;20187;-67
2021/08/12 03:18:07;;;;;;;7.23;6.50;;;;;;;20.03;84.42;96692.16;5064539;28;20839;-65
2021/08/12 03:20:32;;;;;;;7.63;6.93;;;;;;;20.03;84.39;96691.34;5054493;28;20414;-65
2021/08/12 03:22:58;;;;;;;7.00;6.30;;;;;;;19.97;84.65;96698.59;5070134;28;20417;-65
2021/08/12 03:25:24;;;;;;;7.30;6.70;;;;;;;19.97;84.67;96695.91;5074191;28;20210;-66
2021/08/12 03:27:50;;;;;;;7.40;6.70;;;;;;;19.97;84.65;96692.44;5074260;28;20175;-66
2021/08/12 03:30:17;;;;;;;7.10;6.60;;;;;;;19.89;84.87;96699.16;5074363;28;20884;-66
2021/08/12 03:32:42;;;;;;;8.60;7.17;;;;;;;19.90;84.93;96700.78;5065782;28;20422;-65
2021/08/12 03:35:08;;;;;;;11.30;7.90;;;;;;;19.95;84.68;96687.41;5054196;28;20800;-65
2021/08/12 03:37:33;;;;;;;9.20;8.13;;;;;;;20.00;84.39;96700.69;5061061;28;20253;-67
2021/08/12 03:39:59;;;;;;;8.73;7.73;;;;;;;19.95;84.68;96702.59;5074023;28;20500;-67
2021/08/12 03:42:24;;;;;;;7.80;6.90;;;;;;;19.89;84.81;96699.16;5074146;28;20174;-65
2021/08/12 03:44:50;;;;;;;7.93;7.13;;;;;;;19.91;84.77;96702.34;5073475;28;20202;-65
2021/08/12 03:47:17;;;;;;;8.00;7.30;;;;;;;19.89;84.99;96701.06;5074047;28;20181;-64
2021/08/12 03:49:43;;;;;;;8.43;7.73;;;;;;;19.85;85.18;96700.81;5073721;28;20171;-65
2021/08/12 03:52:08;;;;;;;7.73;7.00;;;;;;;19.89;85.08;96709.81;5068896;28;20440;-67
2021/08/12 03:54:35;;;;;;;8.43;7.57;;;;;;;19.90;84.96;96707.97;5053561;28;20195;-66
2021/08/12 03:57:01;;;;;;;8.40;7.60;;;;;;;19.91;84.93;96712.25;5053746;28;20168;-65
2021/08/12 03:59:26;;;;;;;8.53;7.70;;;;;;;19.88;85.19;96710.91;5053656;28;20420;-66
2021/08/12 04:01:51;;;;;;;8.20;7.50;;;;;;;19.80;85.32;96708.81;5069771;28;20204;-65
2021/08/12 04:04:17;;;;;;;7.50;6.60;;;;;;;19.81;85.14;96710.41;5073207;28;20265;-65
2021/08/12 04:06:43;;;;;;;9.00;8.10;;;;;;;19.88;84.79;96704.78;5073609;28;20198;-66
2021/08/12 04:09:08;;;;;;;10.40;7.57;;;;;;;19.80;85.04;96708.03;5073706;28;20180;-65
2021/08/12 04:11:34;;;;;;;8.20;7.37;;;;;;;19.80;84.73;96713.38;5073712;28;20504;-65
2021/08/12 04:13:59;;;;;;;7.10;6.50;;;;;;;19.71;85.19;96715.78;5056112;28;20650;-67
2021/08/12 04:16:25;;;;;;;9.03;7.03;;;;;;;19.73;85.08;96724.31;5071989;28;20174;-66
2021/08/12 04:18:50;;;;;;;7.43;6.77;;;;;;;19.77;84.99;96721.91;5073708;28;20629;-65
2021/08/12 04:21:15;;;;;;;6.50;6.00;;;;;;;19.74;84.44;96723.28;5069993;28;20182;-66
2021/08/12 04:23:41;;;;;;;7.67;6.97;;;;;;;19.59;85.19;96718.00;5052896;28;20187;-65
2021/08/12 04:26:06;;;;;;;7.43;6.60;;;;;;;19.49;85.54;96715.38;5053388;28;20210;-66
2021/08/12 04:28:31;;;;;;;8.83;7.10;;;;;;;19.54;86.25;96714.56;5053539;28;20233;-67
2021/08/12 04:30:57;;;;;;;8.70;7.37;;;;;;;19.55;86.01;96705.50;5069755;28;20178;-67
2021/08/12 04:33:22;;;;;;;9.07;7.80;;;;;;;19.52;86.12;96717.50;5073125;28;20621;-65
2021/08/12 04:35:48;;;;;;;7.40;6.73;;;;;;;19.56;86.22;96707.88;5073248;28;20213;-67
2021/08/12 04:38:13;;;;;;;7.20;6.60;;;;;;;19.51;86.85;96712.44;5073514;28;20178;-67
2021/08/12 04:40:38;;;;;;;8.07;7.30;;;;;;;19.48;86.63;96714.56;5073375;28;20648;-65
2021/08/12 04:43:04;;;;;;;7.63;6.90;;;;;;;19.62;86.46;96712.09;5071598;28;20175;-66
2021/08/12 04:45:30;;;;;;;7.27;6.57;;;;;;;19.65;86.46;96708.91;5057782;28;20207;-66
2021/08/12 04:48:00;;;;;;;6.67;6.07;;;;;;;19.75;85.68;96698.19;5053147;28;20653;-65
2021/08/12 04:50:26;;;;;;;7.33;6.73;;;;;;;19.70;86.18;96697.41;5053190;28;20254;-65
2021/08/12 04:52:51;;;;;;;7.30;6.70;;;;;;;19.76;86.06;96707.78;5052825;28;20501;-66
2021/08/12 04:55:17;;;;;;;7.10;6.27;;;;;;;19.85;85.89;96705.34;5052987;28;20183;-66
2021/08/12 04:57:42;;;;;;;7.90;7.20;;;;;;;19.88;85.40;96713.59;5053255;28;20630;-67
2021/08/12 05:00:08;;;;;;;8.07;7.37;;;;;;;19.93;85.85;96712.78;5066668;28;20280;-66
2021/08/12 05:02:33;;;;;;;9.00;7.80;;;;;;;19.88;86.30;96718.13;5075348;28;20166;-65
2021/08/12 05:04:59;;;;;;;7.50;6.80;;;;;;;19.87;86.42;96712.00;5076517;28;20502;-64
2021/08/12 05:07:24;;;;;;;7.87;7.13;;;;;;;19.91;86.60;96714.91;5077232;28;20520;-66
2021/08/12 05:09:50;;;;;;;7.57;6.83;;;;;;;19.97;86.53;96709.25;5077051;28;20182;-67
2021/08/12 05:12:22;;;;;;;7.47;6.70;;;;;;;19.98;86.96;96713.53;5077069;28;20250;-67
2021/08/12 05:14:48;;;;;;;8.10;7.40;;;;;;;20.08;86.88;96696.66;5062832;28;20199;-65
2021/08/12 05:17:14;;;;;;;8.13;7.33;;;;;;;20.13;87.04;96709.94;5056811;28;20492;-67
2021/08/12 05:19:40;;;;;;;7.60;6.80;;;;;;;20.19;86.86;96703.53;5056974;28;20851;-67
2021/08/12 05:22:06;;;;;;;9.00;7.53;;;;;;;20.17;86.53;96711.03;5065636;28;20250;-66
2021/08/12 05:24:31;;;;;;;8.47;7.37;;;;;;;20.23;86.21;96712.59;5076120;28;20483;-65
2021/08/12 05:26:57;;;;;;;8.10;7.37;;;;;;;20.29;85.85;96704.25;5076753;28;20254;-65
2021/08/12 05:29:22;;;;;;;8.47;7.67;;;;;;;20.32;85.88;96709.06;5075696;28;20183;-67
2021/08/12 05:31:47;;;;;;;7.80;6.80;;;;;;;20.21;86.33;96718.22;5076521;28;20234;-65
2021/08/12 05:34:13;;;;;;;9.20;7.77;;;;;;;20.27;86.25;96719.75;5076114;28;20191;-65
2021/08/12 05:36:38;;;;;;;8.70;7.90;;;;;;;20.30;86.34;96721.88;5076527;28;20179;-65
2021/08/12 05:39:03;;;;;;;8.20;7.40;;;;;;;20.36;86.00;96726.09;5076394;28;20167;-67
2021/08/12 05:41:29;;;;;;;8.30;7.60;;;;;;;20.38;86.27;96723.94;5076472;28;20511;-65
2021/08/12 05:43:54;;;;;;;7.87;7.10;;;;;;;20.48;86.30;96731.09;5065482;28;20642;-65
2021/08/12 05:46:20;;;;;;;8.10;7.40;;;;;;;20.52;86.32;96729.47;5056072;28;20261;-65
2021/08/12 05:48:45;;;;;;;7.57;6.60;;;;;;;20.51;86.65;96729.75;5056370;28;20206;-65
2021/08/12 05:51:12;;;;;;;8.27;7.47;;;;;;;20.59;86.69;96729.94;5056313;28;20573;-65
2021/08/12 05:53:38;;;;;;;8.07;7.37;;;;;;;20.63;86.82;96733.66;5055809;28;20216;-67
2021/08/12 05:56:03;;;;;;;7.93;7.20;;;;;;;20.69;86.90;96737.84;5056046;28;20414;-66
2021/08/12 05:58:32;;;;;;;7.97;7.23;;;;;;;20.77;86.76;96745.28;5064371;28;20321;-66
2021/08/12 06:00:58;;;;;;;9.43;8.53;;;;;;;20.85;86.78;96742.03;5075943;28;20190;-65
2021/08/12 06:03:23;;;;;;;8.00;7.30;;;;;;;20.81;87.29;96751.66;5075662;28;20891;-65
2021/08/12 06:05:54;;;;;;;8.33;6.93;;;;;;;20.86;87.09;96740.13;5075874;28;20198;-65
2021/08/12 06:08:19;;;;;;;7.17;6.57;;;;;;;20.94;87.25;96747.53;5076086;28;20166;-67
2021/08/12 06:10:44;;;;;;;7.80;7.10;;;;;;;21.00;86.84;96746.44;5075910;28;20413;-65
2021/08/12 06:13:10;;;;;;;8.63;7.87;;;;;;;21.03;87.19;96735.19;5066359;28;20175;-65
2021/08/12 06:15:35;;;;;;;7.93;7.20;;;;;;;21.09;86.64;96750.09;5055599;28;20221;-67
2021/08/12 06:18:11;;;;;;;7.10;6.50;;;;;;;21.10;86.92;96736.47;5055784;28;20213;-65
2021/08/12 06:20:38;;;;;;;6.63;5.97;;;;;;;21.17;87.03;96734.25;5055560;28;20171;-65
2021/08/12 06:23:07;;;;;;;8.43;7.63;;;;;;;21.12;85.55;96733.50;5056070;28;20513;-66
2021/08/12 06:25:34;;;;;;;9.73;7.50;;;;;;;21.24;84.70;96736.56;5055371;28;20553;-65
2021/08/12 06:28:00;;;;;;;7.70;6.90;;;;;;;21.18;83.07;96733.16;5055445;28;20402;-65
2021/08/12 06:30:25;;;;;;;7.33;6.60;;;;;;;21.16;83.51;96729.19;5055447;28;20415;-66
2021/08/12 06:32:50;;;;;;;7.60;6.47;;;;;;;21.21;83.62;96723.78;5058342;28;20175;-67
2021/08/12 06:35:16;;;;;;;7.13;6.53;;;;;;;21.36;83.51;96720.94;5071937;28;20236;-66
2021/08/12 06:37:47;;;;;;;7.33;6.57;;;;;;;21.52;82.84;96716.22;5075498;28;20159;-64
2021/08/12 06:40:14;;;;;;;7.77;6.80;;;;;;;21.64;82.55;96713.91;5075180;28;20201;-65
2021/08/12 06:42:39;;;;;;;7.03;6.37;;;;;;;21.71;82.45;96717.81;5074831;28;20405;-65
2021/08/12 06:45:06;;;;;;;6.50;6.00;;;;;;;21.78;82.66;96709.44;5075236;28;20804;-67
2021/08/12 06:47:32;;;;;;;6.40;5.80;;;;;;;21.84;83.37;96716.34;5075202;28;20178;-65
2021/08/12 06:49:57;;;;;;;7.63;7.00;;;;;;;21.88;84.02;96714.69;5066337;28;20421;-65
2021/08/12 06:52:22;;;;;;;8.43;7.60;;;;;;;21.75;83.90;96718.84;5055208;28;20576;-67
2021/08/12 06:54:48;;;;;;;8.13;7.33;;;;;;;21.94;83.35;96724.28;5054506;28;20188;-65
2021/08/12 06:57:13;;;;;;;10.17;8.90;;;;;;;21.83;81.92;96728.94;5054972;28;20657;-67
2021/08/12 06:59:39;;;;;;;8.87;6.57;;;;;;;22.00;82.60;96734.59;5073668;28;20175;-68
2021/08/12 07:02:04;;;;;;;13.73;8.13;;;;;;;22.09;82.32;96742.78;5074879;28;20629;-67
2021/08/12 07:04:30;;;;;;;9.20;7.97;;;;;;;22.23;81.78;96743.66;5074391;28;20551;-64
2021/08/12 07:06:55;;;;;;;10.33;7.40;;;;;;;22.35;80.95;96736.78;5074824;28;20174;-62
2021/08/12 07:09:20;;;;;;;12.03;6.90;;;;;;;22.46;81.58;96745.47;5074844;28;20205;-64
2021/08/12 07:11:47;;;;;;;8.50;5.90;;;;;;;22.58;81.93;96747.69;5074648;28;20179;-60
2021/08/12 07:14:12;;;;;;;7.33;6.67;;;;;;;22.58;82.17;96736.97;5056717;28;20214;-60
2021/08/12 07:16:38;;;;;;;6.93;6.27;;;;;;;22.70;82.26;96738.13;5054684;28;20881;-64
2021/08/12 07:19:03;;;;;;;6.37;5.87;;;;;;;22.80;81.96;96747.88;5052175;28;20167;-63
2021/08/12 07:21:29;;;;;;;7.20;6.60;;;;;;;22.87;81.86;96748.31;5054887;28;20791;-63
2021/08/12 07:23:54;;;;;;;7.20;6.60;;;;;;;22.91;82.72;96744.75;5088479;28;20668;-64
2021/08/12 07:26:20;;;;;;;6.70;6.10;;;;;;;22.97;82.97;96746.22;5090209;28;20271;-63
2021/08/12 07:28:46;;;;;;;7.87;6.70;;;;;;;22.85;80.92;96745.13;5074191;28;20186;-66
2021/08/12 07:31:13;;;;;;;7.60;6.77;;;;;;;22.95;80.63;96745.75;5073377;28;20284;-62
2021/08/12 07:33:39;;;;;;;6.70;6.10;;;;;;;22.98;80.67;96747.03;5090692;28;20883;-62
2021/08/12 07:36:06;;;;;;;7.20;6.60;;;;;;;23.07;80.44;96739.91;5090762;28;20431;-63
2021/08/12 07:38:32;;;;;;;7.27;6.37;;;;;;;23.14;80.48;96737.63;5091015;28;20518;-62
2021/08/12 07:40:58;;;;;;;7.20;5.60;;;;;;;23.16;79.22;96738.13;5091033;28;20440;-65
2021/08/12 07:43:25;;;;;;;6.30;5.80;;;;;;;23.23;79.68;96742.03;5060054;28;20429;-62
2021/08/12 07:45:50;;;;;;;7.50;6.90;;;;;;;23.26;79.43;96743.31;5086077;28;20460;-61
2021/08/12 07:48:16;;;;;;;7.67;5.70;;;;;;;23.27;79.07;96732.31;5075678;28;20433;-63
2021/08/12 07:50:42;;;;;;;6.23;5.73;;;;;;;23.31;79.06;96733.34;5081261;28;20324;-66
2021/08/12 07:53:07;;;;;;;7.13;6.23;;;;;;;23.16;77.38;96738.94;5090305;28;20546;-63
2021/08/12 07:55:32;;;;;;;6.10;5.60;;;;;;;23.38;77.78;96740.97;5090088;28;20428;-65
2021/08/12 07:57:58;;;;;;;6.80;6.20;;;;;;;23.48;77.90;96738.88;5072086;28;20206;-62
2021/08/12 08:00:23;;;;;;;6.53;5.67;;;;;;;23.56;77.64;96731.22;5070268;28;20204;-64
2021/08/12 08:02:49;;;;;;;7.10;6.40;;;;;;;23.61;77.29;96739.97;5058817;28;20258;-66
2021/08/12 08:05:19;;;;;;;5.73;5.23;;;;;;;23.76;77.77;96739.69;5049957;28;20198;-61
2021/08/12 08:07:46;;;;;;;10.03;5.50;;;;;;;23.67;75.12;96741.47;5049762;28;20876;-63
2021/08/12 08:10:12;;;;;;;9.10;6.00;;;;;;;23.45;75.78;96736.81;5052964;28;20432;-67
2021/08/12 08:12:38;;;;;;;6.60;6.10;;;;;;;23.60;75.47;96738.41;5069830;28;20470;-66
2021/08/12 08:15:04;;;;;;;6.43;5.70;;;;;;;23.76;75.40;96733.50;5070244;28;20664;-63
2021/08/12 08:17:29;;;;;;;6.30;5.70;;;;;;;23.88;76.22;96736.50;5070141;28;20417;-65
2021/08/12 08:19:57;;;;;;;7.03;6.33;;;;;;;23.89;75.79;96732.69;5069390;28;20409;-61
2021/08/12 08:22:23;;;;;;;6.63;6.03;;;;;;;24.16;75.08;96735.38;5069215;28;20178;-65
2021/08/12 08:24:48;;;;;;;6.10;5.30;;;;;;;24.26;74.63;96733.25;5069395;28;20521;-65
2021/08/12 08:27:14;;;;;;;6.40;5.90;;;;;;;24.44;74.92;96739.56;5083574;28;20178;-65
2021/08/12 08:29:39;;;;;;;6.93;5.70;;;;;;;24.55;74.53;96732.06;5090162;28;20186;-65
2021/08/12 08:32:05;;;;;;;5.37;4.97;;;;;;;24.69;73.84;96732.78;5089695;28;20176;-65
2021/08/12 08:34:30;;;;;;;7.77;6.00;;;;;;;24.76;74.15;96725.91;5089769;28;20198;-65
2021/08/12 08:36:55;;;;;;;5.63;5.23;;;;;;;24.82;73.85;96723.91;5084263;28;20288;-65
2021/08/12 08:39:21;;;;;;;7.33;6.57;;;;;;;24.85;73.07;96728.66;5073200;28;20174;-64
2021/08/12 08:41:46;;;;;;;6.40;5.43;;;;;;;24.87;73.03;96727.25;5053515;28;20194;-65
2021/08/12 08:44:12;;;;;;;7.20;5.73;;;;;;;25.01;72.65;96730.66;5053091;28;20253;-65
2021/08/12 08:46:39;;;;;;;6.77;6.17;;;;;;;25.02;72.40;96734.13;5053318;28;20199;-65
2021/08/12 08:49:08;;;;;;;7.17;6.50;;;;;;;25.09;71.16;96726.44;5053260;28;20175;-65
2021/08/12 08:51:35;;;;;;;7.20;5.90;;;;;;;25.25;71.28;96724.91;5053536;28;20410;-65
2021/08/12 08:54:02;;;;;;;6.50;6.00;;;;;;;25.41;71.25;96729.63;5052730;28;20773;-65
2021/08/12 08:56:27;;;;;;;8.03;6.00;;;;;;;25.41;70.27;96736.88;5072076;28;20428;-64
2021/08/12 08:58:52;;;;;;;6.97;5.43;;;;;;;25.56;69.55;96728.41;5073292;28;20409;-65
2021/08/12 09:01:18;;;;;;;6.90;6.27;;;;;;;25.55;70.44;96729.50;5073353;28;20163;-65
2021/08/12 09:03:45;;;;;;;10.00;6.20;;;;;;;25.66;70.05;96727.31;5071362;28;20652;-65
2021/08/12 09:06:10;;;;;;;7.63;5.93;;;;;;;25.70;70.52;96729.06;5073189;28;20206;-65
2021/08/12 09:08:35;;;;;;;6.43;5.70;;;;;;;25.82;70.91;96726.56;5073055;28;20417;-65
2021/08/12 09:11:01;;;;;;;7.40;6.63;;;;;;;25.79;69.06;96727.19;5055365;28;20183;-65
2021/08/12 09:13:28;;;;;;;6.80;6.20;;;;;;;25.88;68.60;96721.81;5052721;28;20523;-65
2021/08/12 09:15:54;;;;;;;6.13;5.63;;;;;;;26.00;69.74;96720.09;5053014;28;20207;-65
2021/08/12 09:18:24;;;;;;;7.37;5.50;;;;;;;26.11;69.87;96721.41;5060842;28;20468;-64
2021/08/12 09:20:51;;;;;;;11.20;6.37;;;;;;;26.25;69.16;96722.03;5072903;28;20163;-65
2021/08/12 09:23:28;;;;;;;8.03;5.93;;;;;;;26.37;69.23;96724.94;5071237;28;20466;-65
2021/08/12 09:25:54;;;;;;;8.03;5.70;;;;;;;26.50;69.43;96717.78;5072767;28;20487;-65
2021/08/12 09:28:30;;;;;;;7.77;6.40;;;;;;;26.58;69.18;96713.50;5072979;28;20412;-65
2021/08/12 09:31:02;;;;;;;7.43;6.67;;;;;;;26.39;71.20;96711.94;5057708;28;20417;-65
2021/08/12 09:33:30;;;;;;;6.20;5.70;;;;;;;26.59;68.79;96707.78;5052368;28;20939;-65
2021/08/12 09:35:56;;;;;;;5.87;5.30;;;;;;;26.70;69.46;96714.47;5052697;28;20775;-64
2021/08/12 09:38:23;;;;;;;6.80;5.90;;;;;;;26.85;69.39;96707.78;5052859;28;20402;-64
2021/08/12 09:41:02;;;;;;;6.37;5.87;;;;;;;27.02;69.30;96713.91;5052898;28;20754;-65
2021/08/12 09:43:37;;;;;;;6.63;5.97;;;;;;;27.03;65.32;96712.03;5052630;28;20491;-65
2021/08/12 09:46:08;;;;;;;6.40;5.53;;;;;;;26.54;61.44;96712.53;5069797;28;20455;-65
2021/08/12 09:48:33;;;;;;;5.93;5.43;;;;;;;26.73;65.89;96711.13;5073282;28;20441;-65
2021/08/12 09:51:07;;;;;;;7.50;6.07;;;;;;;27.09;66.14;96714.22;5076392;28;20923;-65
2021/08/12 09:53:33;;;;;;;6.40;5.53;;;;;;;27.21;65.59;96722.41;5075831;28;20171;-64
2021/08/12 09:56:07;;;;;;;7.60;6.50;;;;;;;27.34;65.67;96723.34;5075946;28;20425;-65
2021/08/12 09:58:37;;;;;;;7.23;6.53;;;;;;;27.40;62.11;96722.06;5076101;28;20408;-65
2021/08/12 10:01:22;;;;;;;6.77;6.10;;;;;;;27.37;63.27;96720.81;5056248;28;20421;-65
2021/08/12 10:03:50;;;;;;;6.90;6.23;;;;;;;27.49;60.95;96719.31;5055498;28;20768;-64
2021/08/12 10:06:24;;;;;;;10.60;6.10;;;;;;;27.68;63.07;96719.72;5055961;28;20452;-64
2021/08/12 10:08:50;;;;;;;7.20;6.27;;;;;;;27.84;62.28;96720.75;5056032;28;20985;-65
2021/08/12 10:11:16;;;;;;;8.20;6.53;;;;;;;27.85;59.74;96719.59;5055895;28;20432;-64
2021/08/12 10:13:41;;;;;;;6.70;6.10;;;;;;;27.53;58.13;96712.16;5057639;28;20788;-65
2021/08/12 10:16:08;;;;;;;7.77;6.10;;;;;;;27.63;59.61;96722.63;5062042;28;20195;-64
2021/08/12 10:18:37;;;;;;;6.60;5.97;;;;;;;27.78;61.77;96717.44;5055824;28;20176;-65
2021/08/12 10:21:03;;;;;;;8.17;6.50;;;;;;;27.87;63.20;96723.59;5055483;28;20414;-65
2021/08/12 10:23:31;;;;;;;6.73;6.13;;;;;;;27.98;64.28;96718.63;5055487;28;20880;-65
2021/08/12 10:25:58;;;;;;;7.17;6.57;;;;;;;28.09;63.43;96723.31;5055646;28;20214;-65
2021/08/12 10:28:25;;;;;;;9.43;6.60;;;;;;;28.17;64.39;96719.75;5055590;28;20414;-65
2021/08/12 10:30:52;;;;;;;7.10;6.50;;;;;;;28.04;57.87;96712.69;5068044;28;20432;-65
2021/08/12 10:33:18;;;;;;;7.90;7.30;;;;;;;28.09;63.87;96709.81;5075119;28;20500;-65
2021/08/12 10:35:44;;;;;;;6.40;5.90;;;;;;;28.15;61.35;96708.50;5075522;28;20516;-65
2021/08/12 10:38:10;;;;;;;7.43;6.83;;;;;;;28.29;58.50;96710.91;5075412;28;20229;-65
2021/08/12 10:40:39;;;;;;;6.97;6.37;;;;;;;28.07;57.29;96703.94;5075236;28;20417;-65
2021/08/12 10:43:05;;;;;;;8.33;6.97;;;;;;;28.33;58.61;96703.75;5074828;28;20177;-65
2021/08/12 10:45:31;;;;;;;7.20;6.50;;;;;;;28.51;62.00;96701.66;5062431;28;20487;-65
2021/08/12 10:47:59;;;;;;;12.93;6.77;;;;;;;28.61;63.42;96696.66;5055263;28;20405;-65
2021/08/12 10:50:27;;;;;;;7.20;6.43;;;;;;;28.56;60.90;96701.50;5055090;28;20233;-65
2021/08/12 10:53:04;;;;;;;6.83;6.23;;;;;;;28.69;58.82;96693.09;5054650;28;20406;-65
2021/08/12 10:55:30;;;;;;;8.60;6.53;;;;;;;28.93;62.33;96693.19;5055003;28;20830;-64
2021/08/12 10:58:25;;;;;;;6.80;6.30;;;;;;;28.96;62.42;96689.00;5055101;28;20765;-64
2021/08/12 11:00:53;;;;;;;7.53;6.90;;;;;;;29.02;59.86;96684.97;5057181;28;20406;-64
2021/08/12 11:03:34;;;;;;;7.00;6.23;;;;;;;28.98;60.37;96684.03;5054461;28;20877;-65
2021/08/12 11:06:10;;;;;;;8.03;7.33;;;;;;;29.10;60.66;96679.44;5054672;28;20445;-65
2021/08/12 11:08:59;;;;;;;7.27;6.67;;;;;;;29.16;61.02;96685.47;5054827;28;20504;-64
2021/08/12 11:11:30;;;;;;;7.03;6.50;;;;;;;29.15;61.00;96679.25;5054801;28;20414;-65
2021/08/12 11:13:58;;;;;;;6.87;6.27;;;;;;;29.33;58.58;96685.25;5057638;28;20914;-65
2021/08/12 11:16:49;;;;;;;7.33;6.73;;;;;;;29.18;55.41;96678.59;5074651;28;20417;-64
2021/08/12 11:19:20;;;;;;;6.53;6.03;;;;;;;29.38;59.80;96679.63;5065541;28;20417;-64
2021/08/12 11:21:46;;;;;;;6.53;6.13;;;;;;;29.42;57.38;96678.59;5074572;28;20466;-65
2021/08/12 11:24:31;;;;;;;8.50;7.13;;;;;;;29.23;54.79;96678.38;5073828;28;20441;-65
2021/08/12 11:26:57;;;;;;;8.80;8.03;;;;;;;29.14;54.53;96674.97;5074278;28;20234;-65
2021/08/12 11:29:23;;;;;;;7.40;6.80;;;;;;;29.32;56.59;96678.25;5074406;28;20405;-64
2021/08/12 11:31:48;;;;;;;7.93;6.70;;;;;;;29.39;60.89;96684.69;5069180;28;20421;-64
2021/08/12 11:34:52;;;;;;;7.17;6.67;;;;;;;29.46;58.75;96686.81;5069120;28;20537;-65
2021/08/12 11:37:26;;;;;;;8.20;7.40;;;;;;;29.44;61.05;96675.56;5065513;28;20211;-64